Time;durP1;ratioP1;P1;durP2;ratioP2;P2;SDS_P1;SDS_P2;PMS_P1;PMS_P2;Temp;Humidity;BMP_temperature;BMP_pressure;BME280_temperature;BME280_humidity;BME280_pressure;Samples;Min_cycle;Max_cycle;Signal;HPM_P1;HPM_P2
2023/04/27 00:00:05;;;;;;;4.75;1.95;;;5.80;99.90;;;;;;5094235;28;20036;-83
2023/04/27 00:02:31;;;;;;;3.90;2.17;;;5.70;99.90;;;;;;5094084;28;20052;-84
2023/04/27 00:04:57;;;;;;;4.13;2.30;;;5.70;99.90;;;;;;5094222;28;20042;-83
2023/04/27 00:07:23;;;;;;;5.50;2.70;;;5.60;99.90;;;;;;5094254;28;20131;-83
2023/04/27 00:09:48;;;;;;;6.28;2.42;;;5.60;99.90;;;;;;5094117;28;20522;-83
2023/04/27 00:12:14;;;;;;;6.65;2.10;;;5.60;99.90;;;;;;5093970;28;20102;-83
2023/04/27 00:14:39;;;;;;;4.03;2.00;;;5.60;99.90;;;;;;5094107;28;20039;-83
2023/04/27 00:17:05;;;;;;;4.30;2.75;;;5.50;99.90;;;;;;5094129;28;20072;-83
2023/04/27 00:19:31;;;;;;;4.25;2.17;;;5.50;99.90;;;;;;5093886;28;20048;-83
2023/04/27 00:21:58;;;;;;;3.67;2.30;;;5.50;99.90;;;;;;5094012;28;20514;-84
2023/04/27 00:24:24;;;;;;;4.75;2.25;;;5.40;99.90;;;;;;5093678;28;20048;-84
2023/04/27 00:26:50;;;;;;;5.63;2.28;;;5.40;99.90;;;;;;5093948;28;20453;-84
2023/04/27 00:29:15;;;;;;;3.17;1.85;;;5.30;99.90;;;;;;5093864;28;20052;-84
2023/04/27 00:31:41;;;;;;;5.30;2.83;;;5.30;99.90;;;;;;5092527;28;20097;-84
2023/04/27 00:34:07;;;;;;;7.10;2.78;;;5.30;99.90;;;;;;5093794;28;20051;-83
2023/04/27 00:36:33;;;;;;;5.18;2.53;;;5.30;99.90;;;;;;5093928;28;20079;-83
2023/04/27 00:38:59;;;;;;;5.43;2.42;;;5.30;99.90;;;;;;5092704;28;20059;-83
2023/04/27 00:41:25;;;;;;;5.45;2.53;;;5.30;99.90;;;;;;5092672;28;20040;-84
2023/04/27 00:43:50;;;;;;;4.60;2.25;;;5.20;99.90;;;;;;5093775;28;20131;-84
2023/04/27 00:46:18;;;;;;;4.85;2.17;;;5.20;99.90;;;;;;5092743;28;20067;-83
2023/04/27 00:48:44;;;;;;;5.18;2.50;;;5.10;99.90;;;;;;5093689;28;20040;-83
2023/04/27 00:51:10;;;;;;;4.47;2.03;;;5.10;99.90;;;;;;5092211;28;20109;-83
2023/04/27 00:53:36;;;;;;;7.28;2.50;;;5.10;99.90;;;;;;5092343;28;20044;-83
2023/04/27 00:56:04;;;;;;;6.30;2.55;;;5.10;99.90;;;;;;5093701;28;20059;-83
2023/04/27 00:58:29;;;;;;;6.97;2.67;;;5.00;99.90;;;;;;5093700;28;20085;-83
2023/04/27 01:00:55;;;;;;;4.07;2.20;;;5.00;99.90;;;;;;5092466;28;20052;-83
2023/04/27 01:03:21;;;;;;;5.47;2.22;;;4.90;99.90;;;;;;5093573;28;20056;-82
2023/04/27 01:05:47;;;;;;;8.93;2.50;;;4.90;99.90;;;;;;5093588;28;20044;-83
2023/04/27 01:08:12;;;;;;;5.40;2.40;;;4.80;99.90;;;;;;5093546;28;20541;-83
2023/04/27 01:10:39;;;;;;;4.88;2.17;;;4.70;99.90;;;;;;5093548;28;20044;-83
2023/04/27 01:13:04;;;;;;;4.75;2.67;;;4.60;99.90;;;;;;5097384;28;20040;-83
2023/04/27 01:15:30;;;;;;;5.40;2.33;;;4.60;99.90;;;;;;5097524;28;20448;-83
2023/04/27 01:18:00;;;;;;;5.20;2.45;;;4.60;99.90;;;;;;5097471;28;20104;-83
2023/04/27 01:20:29;;;;;;;6.38;3.50;;;4.50;99.90;;;;;;5096234;28;20048;-82
2023/04/27 01:22:55;;;;;;;7.57;2.45;;;4.40;99.90;;;;;;5096933;28;20445;-82
2023/04/27 01:25:21;;;;;;;4.70;2.20;;;4.40;99.90;;;;;;5097349;28;20047;-82
2023/04/27 01:27:47;;;;;;;4.13;2.47;;;4.30;99.90;;;;;;5097249;28;20044;-83
2023/04/27 01:30:13;;;;;;;5.65;2.63;;;4.30;99.90;;;;;;5095930;28;20047;-82
2023/04/27 01:32:38;;;;;;;5.95;2.53;;;4.30;99.90;;;;;;5097220;28;20090;-83
2023/04/27 01:35:05;;;;;;;6.03;2.80;;;4.30;99.90;;;;;;5097169;28;20531;-85
2023/04/27 01:37:30;;;;;;;5.43;2.60;;;4.20;99.90;;;;;;5096055;28;20054;-82
2023/04/27 01:39:56;;;;;;;4.85;2.70;;;4.20;99.90;;;;;;5095965;28;20036;-82
2023/04/27 01:42:22;;;;;;;4.43;2.28;;;4.20;99.90;;;;;;5095770;28;20048;-83
2023/04/27 01:44:47;;;;;;;5.43;2.92;;;4.20;99.90;;;;;;5096901;28;20043;-83
2023/04/27 01:47:16;;;;;;;7.13;2.80;;;4.10;99.90;;;;;;5096903;28;20055;-83
2023/04/27 01:49:43;;;;;;;6.82;3.47;;;4.10;99.90;;;;;;5096939;28;20036;-83
2023/04/27 01:52:08;;;;;;;4.30;2.85;;;4.00;99.90;;;;;;5096566;28;20475;-83
2023/04/27 01:54:35;;;;;;;8.20;3.45;;;4.00;99.90;;;;;;5096573;28;20051;-83
2023/04/27 01:57:00;;;;;;;5.43;3.10;;;3.90;99.90;;;;;;5096712;28;20048;-83
2023/04/27 01:59:27;;;;;;;5.53;3.33;;;3.90;99.90;;;;;;5096648;28;20038;-82
2023/04/27 02:01:53;;;;;;;6.97;3.60;;;3.90;99.90;;;;;;5095176;28;20047;-82
2023/04/27 02:04:19;;;;;;;6.65;3.83;;;3.80;99.90;;;;;;5096585;28;20040;-82
2023/04/27 02:06:45;;;;;;;6.53;3.53;;;3.90;99.90;;;;;;5097025;28;20483;-82
2023/04/27 02:09:11;;;;;;;8.13;3.15;;;3.80;99.90;;;;;;5096477;28;20036;-82
2023/04/27 02:11:37;;;;;;;6.72;3.40;;;3.80;99.90;;;;;;5096406;28;20046;-82
2023/04/27 02:14:03;;;;;;;6.57;3.70;;;3.80;99.90;;;;;;5096265;28;20118;-82
2023/04/27 02:16:28;;;;;;;9.40;4.00;;;3.70;99.90;;;;;;5096341;28;20048;-82
2023/04/27 02:18:54;;;;;;;7.55;3.67;;;3.80;99.90;;;;;;5096274;28;20047;-82
2023/04/27 02:21:20;;;;;;;5.78;3.30;;;3.70;99.90;;;;;;5094867;28;20089;-82
2023/04/27 02:23:46;;;;;;;6.50;3.70;;;3.70;99.90;;;;;;5094718;28;20056;-82
2023/04/27 02:26:18;;;;;;;6.20;3.60;;;3.60;99.90;;;;;;5096130;28;20051;-82
2023/04/27 02:28:45;;;;;;;6.72;3.90;;;3.60;99.90;;;;;;5095985;28;20036;-82
2023/04/27 02:31:10;;;;;;;8.18;3.70;;;3.60;99.90;;;;;;5095994;28;20044;-82
2023/04/27 02:33:36;;;;;;;13.30;4.82;;;3.60;99.90;;;;;;5096044;28;20059;-82
2023/04/27 02:36:02;;;;;;;6.72;3.80;;;3.50;99.90;;;;;;5095801;28;20399;-82
2023/04/27 02:38:28;;;;;;;9.07;3.90;;;3.50;99.90;;;;;;5095982;28;20051;-82
2023/04/27 02:40:54;;;;;;;7.35;3.83;;;3.50;99.90;;;;;;5095818;28;20043;-82
2023/04/27 02:43:20;;;;;;;8.80;4.40;;;3.40;99.90;;;;;;5095505;28;20036;-82
2023/04/27 02:45:46;;;;;;;6.93;3.60;;;3.50;99.90;;;;;;5094333;28;20040;-82
2023/04/27 02:48:12;;;;;;;13.70;5.13;;;3.40;99.90;;;;;;5094608;28;20052;-82
2023/04/27 02:50:44;;;;;;;10.80;3.80;;;3.40;99.90;;;;;;5095667;28;20368;-82
2023/04/27 02:53:10;;;;;;;5.07;2.92;;;3.40;99.90;;;;;;5094622;28;20044;-82
2023/04/27 02:55:36;;;;;;;7.25;3.38;;;3.40;99.90;;;;;;5095561;28;20063;-83
2023/04/27 02:58:02;;;;;;;6.75;3.78;;;3.30;99.90;;;;;;5095637;28;20036;-82
2023/04/27 03:00:28;;;;;;;6.18;3.28;;;3.40;99.90;;;;;;5095461;28;20460;-81
2023/04/27 03:02:55;;;;;;;7.97;3.47;;;3.40;99.90;;;;;;5095459;28;20044;-82
2023/04/27 03:05:21;;;;;;;8.68;3.80;;;3.30;99.90;;;;;;5095411;28;20063;-82
2023/04/27 03:07:46;;;;;;;7.30;3.55;;;3.20;99.90;;;;;;5094067;28;20048;-83
2023/04/27 03:10:12;;;;;;;8.32;3.50;;;3.20;99.90;;;;;;5077268;28;20148;-82
2023/04/27 03:12:38;;;;;;;5.53;3.40;;;3.20;99.90;;;;;;5074696;28;20098;-83
2023/04/27 03:15:04;;;;;;;7.60;3.80;;;3.20;99.90;;;;;;5074823;28;20040;-83
2023/04/27 03:17:30;;;;;;;6.32;3.40;;;3.20;99.90;;;;;;5073849;28;20139;-83
2023/04/27 03:19:56;;;;;;;6.60;3.72;;;3.20;99.90;;;;;;5074955;28;20055;-83
2023/04/27 03:22:21;;;;;;;7.55;3.80;;;3.20;99.90;;;;;;5074754;28;20049;-83
2023/04/27 03:24:48;;;;;;;7.32;3.67;;;3.20;99.90;;;;;;5073141;28;20484;-83
2023/04/27 03:27:15;;;;;;;6.95;3.60;;;3.20;99.90;;;;;;5074647;28;20049;-83
2023/04/27 03:29:41;;;;;;;6.90;3.50;;;3.20;99.90;;;;;;5074627;28;20074;-82
2023/04/27 03:32:07;;;;;;;6.78;3.58;;;3.20;99.90;;;;;;5073154;28;20403;-83
2023/04/27 03:34:32;;;;;;;10.52;4.38;;;3.20;99.90;;;;;;5072989;28;20043;-83
2023/04/27 03:36:58;;;;;;;10.65;3.92;;;3.20;99.90;;;;;;5074325;28;20040;-83
2023/04/27 03:39:23;;;;;;;7.63;4.18;;;3.20;99.90;;;;;;5074478;28;20569;-83
2023/04/27 03:41:49;;;;;;;8.50;3.90;;;3.20;99.90;;;;;;5073154;28;20056;-82
2023/04/27 03:44:15;;;;;;;10.00;4.57;;;3.20;99.90;;;;;;5074341;28;20135;-82
2023/04/27 03:46:40;;;;;;;9.48;4.30;;;3.20;99.90;;;;;;5074213;28;20087;-82
2023/04/27 03:49:06;;;;;;;6.85;3.67;;;3.20;99.90;;;;;;5073210;28;20039;-82
2023/04/27 03:51:32;;;;;;;9.43;3.40;;;3.20;99.90;;;;;;5073986;28;20526;-83
2023/04/27 03:53:58;;;;;;;8.05;4.38;;;3.20;99.90;;;;;;5074117;28;20036;-83
2023/04/27 03:56:24;;;;;;;6.47;4.25;;;3.20;99.90;;;;;;5074161;28;20086;-83
2023/04/27 03:58:50;;;;;;;8.18;3.25;;;3.10;99.90;;;;;;5074113;28;20053;-83
2023/04/27 04:01:17;;;;;;;8.07;3.53;;;3.10;99.90;;;;;;5073883;28;20040;-83
2023/04/27 04:03:43;;;;;;;6.60;3.67;;;3.10;99.90;;;;;;5073839;28;20055;-85
2023/04/27 04:06:09;;;;;;;7.78;4.30;;;3.10;99.90;;;;;;5073456;28;20040;-83
2023/04/27 04:08:36;;;;;;;7.00;4.30;;;3.10;99.90;;;;;;5072717;28;20511;-82
2023/04/27 04:11:02;;;;;;;6.60;3.63;;;3.10;99.90;;;;;;5073946;28;20048;-82
2023/04/27 04:13:27;;;;;;;7.25;3.63;;;3.10;99.90;;;;;;5073856;28;20453;-82
2023/04/27 04:16:07;;;;;;;7.32;3.92;;;3.10;99.90;;;;;;5073854;28;20052;-82
2023/04/27 04:18:33;;;;;;;7.57;3.40;;;3.00;99.90;;;;;;5073739;28;20045;-82
2023/04/27 04:20:59;;;;;;;7.72;4.35;;;3.00;99.90;;;;;;5073427;28;20123;-83
2023/04/27 04:23:27;;;;;;;8.68;4.68;;;3.00;99.90;;;;;;5073438;28;20080;-82
2023/04/27 04:26:02;;;;;;;8.05;3.72;;;3.10;99.90;;;;;;5072194;28;20048;-83
2023/04/27 04:28:28;;;;;;;9.07;4.30;;;3.10;99.90;;;;;;5073738;28;20167;-83
2023/04/27 04:30:53;;;;;;;7.47;3.75;;;3.10;99.90;;;;;;5072073;28;20127;-82
2023/04/27 04:33:19;;;;;;;8.73;4.05;;;3.10;99.90;;;;;;5073619;28;20118;-82
2023/04/27 04:35:45;;;;;;;8.23;4.15;;;3.10;99.90;;;;;;5073483;28;20047;-82
2023/04/27 04:38:11;;;;;;;8.52;4.10;;;3.10;99.90;;;;;;5073580;28;20041;-82
2023/04/27 04:40:38;;;;;;;7.15;3.75;;;3.10;99.90;;;;;;5073530;28;20162;-82
2023/04/27 04:43:04;;;;;;;8.13;4.20;;;3.20;99.90;;;;;;5073514;28;20126;-83
2023/04/27 04:45:30;;;;;;;7.43;3.45;;;3.20;99.90;;;;;;5072807;28;20075;-82
2023/04/27 04:47:55;;;;;;;9.35;4.65;;;3.20;99.90;;;;;;5073274;28;20399;-82
2023/04/27 04:50:22;;;;;;;10.00;4.82;;;3.30;99.90;;;;;;5073295;28;20044;-83
2023/04/27 04:52:48;;;;;;;8.75;4.00;;;3.50;99.90;;;;;;5073129;28;20091;-83
2023/04/27 04:55:14;;;;;;;7.00;4.32;;;3.50;99.90;;;;;;5073472;28;20071;-83
2023/04/27 04:57:39;;;;;;;8.32;4.65;;;3.60;99.90;;;;;;5073419;28;20076;-83
2023/04/27 05:00:10;;;;;;;8.10;4.78;;;3.80;99.90;;;;;;5073418;28;20036;-83
2023/04/27 05:02:36;;;;;;;10.32;4.97;;;3.90;99.90;;;;;;5073139;28;20040;-83
2023/04/27 05:05:02;;;;;;;12.57;4.72;;;4.00;99.90;;;;;;5073322;28;20047;-83
2023/04/27 05:07:27;;;;;;;10.88;4.95;;;4.10;99.90;;;;;;5073308;28;20048;-83
2023/04/27 05:09:53;;;;;;;12.20;5.47;;;4.20;99.90;;;;;;5073243;28;20052;-83
2023/04/27 05:12:19;;;;;;;10.95;5.40;;;4.40;99.90;;;;;;5073195;28;20037;-83
2023/04/27 05:14:44;;;;;;;10.57;5.85;;;4.50;99.90;;;;;;5072924;28;20391;-84
2023/04/27 05:17:11;;;;;;;9.27;5.30;;;4.50;99.90;;;;;;5073068;28;20047;-84
2023/04/27 05:19:36;;;;;;;13.15;6.28;;;4.60;99.90;;;;;;5071739;28;20048;-83
2023/04/27 05:22:02;;;;;;;11.05;5.32;;;4.70;99.90;;;;;;5073207;28;20085;-83
2023/04/27 05:24:28;;;;;;;11.93;5.47;;;4.70;99.90;;;;;;5072749;28;20408;-83
2023/04/27 05:26:53;;;;;;;11.40;6.05;;;4.70;99.90;;;;;;5073031;28;20484;-83
2023/04/27 05:29:20;;;;;;;10.55;5.60;;;4.70;99.90;;;;;;5073116;28;20070;-83
2023/04/27 05:31:46;;;;;;;10.55;5.20;;;4.70;99.90;;;;;;5072779;28;20059;-83
2023/04/27 05:34:12;;;;;;;10.23;5.35;;;4.70;99.90;;;;;;5071560;28;20057;-83
2023/04/27 05:36:38;;;;;;;8.63;4.97;;;4.70;99.90;;;;;;5073086;28;20048;-83
2023/04/27 05:39:03;;;;;;;8.48;5.13;;;4.90;99.90;;;;;;5071554;28;20053;-83
2023/04/27 05:41:29;;;;;;;13.38;5.05;;;5.00;99.90;;;;;;5073091;28;20131;-83
2023/04/27 05:43:55;;;;;;;8.65;4.47;;;5.10;99.90;;;;;;5073032;28;20116;-82
2023/04/27 05:46:21;;;;;;;11.13;5.43;;;5.30;99.90;;;;;;5072955;28;20463;-82
2023/04/27 05:48:46;;;;;;;11.77;5.20;;;5.50;99.90;;;;;;5072653;28;20052;-83
2023/04/27 05:51:12;;;;;;;10.07;4.50;;;5.60;99.90;;;;;;5072960;28;20119;-83
2023/04/27 05:53:38;;;;;;;10.00;5.22;;;5.70;99.90;;;;;;5072634;28;20036;-83
2023/04/27 05:56:05;;;;;;;9.73;5.43;;;5.90;99.90;;;;;;5071705;28;20094;-83
2023/04/27 05:58:32;;;;;;;9.32;4.45;;;6.00;99.90;;;;;;5074238;28;20044;-83
2023/04/27 06:00:59;;;;;;;8.93;4.60;;;6.20;99.90;;;;;;5076325;28;20045;-84
2023/04/27 06:03:24;;;;;;;9.88;4.47;;;6.30;99.90;;;;;;5076342;28;20072;-83
2023/04/27 06:05:56;;;;;;;8.43;4.15;;;6.50;99.90;;;;;;5076347;28;20079;-83
2023/04/27 06:08:22;;;;;;;9.13;4.13;;;6.60;99.90;;;;;;5076270;28;20044;-83
2023/04/27 06:10:50;;;;;;;9.85;4.90;;;6.80;99.90;;;;;;5074625;28;20369;-82
2023/04/27 06:13:16;;;;;;;9.23;4.53;;;7.00;99.90;;;;;;5076206;28;20071;-83
2023/04/27 06:15:41;;;;;;;6.20;4.22;;;7.10;99.90;;;;;;5075897;28;20044;-83
2023/04/27 06:18:07;;;;;;;6.65;3.90;;;7.20;99.90;;;;;;5074648;28;20040;-83
2023/04/27 06:20:33;;;;;;;7.78;3.88;;;7.30;99.90;;;;;;5074529;28;20128;-83
2023/04/27 06:23:00;;;;;;;7.13;3.72;;;7.30;99.90;;;;;;5075795;28;20087;-84
2023/04/27 06:25:28;;;;;;;7.60;3.97;;;7.30;99.90;;;;;;5075917;28;20051;-83
2023/04/27 06:27:55;;;;;;;6.25;3.80;;;7.10;99.90;;;;;;5075606;28;20059;-83
2023/04/27 06:30:21;;;;;;;8.75;4.18;;;7.00;99.90;;;;;;5075559;28;20070;-83
2023/04/27 06:32:47;;;;;;;7.72;4.25;;;6.90;99.90;;;;;;5075747;28;20048;-82
2023/04/27 06:35:13;;;;;;;7.15;4.38;;;6.90;99.90;;;;;;5075851;28;20036;-83
2023/04/27 06:37:39;;;;;;;9.60;4.43;;;6.90;99.90;;;;;;5074446;28;20071;-83
2023/04/27 06:40:05;;;;;;;9.95;4.03;;;7.10;99.90;;;;;;5075670;28;20106;-83
2023/04/27 06:42:31;;;;;;;9.65;4.13;;;7.20;99.90;;;;;;5074351;28;20040;-84
2023/04/27 06:44:57;;;;;;;8.75;3.90;;;7.40;99.90;;;;;;5074084;28;20048;-83
2023/04/27 06:47:23;;;;;;;6.55;4.03;;;7.60;99.90;;;;;;5075613;28;20041;-83
2023/04/27 06:49:49;;;;;;;6.72;3.53;;;7.80;99.90;;;;;;5075543;28;20071;-83
2023/04/27 06:52:15;;;;;;;8.20;4.00;;;8.00;99.90;;;;;;5073886;28;20079;-82
2023/04/27 06:54:41;;;;;;;9.63;3.72;;;8.00;99.90;;;;;;5076953;28;20076;-84
2023/04/27 06:57:06;;;;;;;7.93;3.78;;;7.90;99.90;;;;;;5095373;28;20419;-83
2023/04/27 06:59:32;;;;;;;5.75;3.90;;;7.90;99.90;;;;;;5095555;28;20048;-78
2023/04/27 07:01:58;;;;;;;5.32;3.25;;;7.80;99.90;;;;;;5095581;28;20044;-82
2023/04/27 07:04:23;;;;;;;6.03;3.28;;;7.90;99.90;;;;;;5095353;28;20124;-83
2023/04/27 07:06:49;;;;;;;7.82;3.60;;;7.90;99.90;;;;;;5095325;28;20083;-82
2023/04/27 07:09:15;;;;;;;6.72;3.72;;;8.00;99.90;;;;;;5086302;28;20040;-81
2023/04/27 07:11:40;;;;;;;8.07;4.35;;;8.00;99.90;;;;;;5076967;28;20044;-78
2023/04/27 07:14:06;;;;;;;10.23;4.63;;;8.00;99.90;;;;;;5074519;28;20399;-81
2023/04/27 07:16:32;;;;;;;8.85;4.50;;;8.00;99.90;;;;;;5074824;28;20044;-82
2023/04/27 07:18:57;;;;;;;11.20;4.22;;;8.00;99.90;;;;;;5075321;28;20484;-83
2023/04/27 07:21:23;;;;;;;9.00;4.32;;;8.00;99.90;;;;;;5085480;28;20113;-81
2023/04/27 07:23:49;;;;;;;8.63;3.75;;;8.10;99.90;;;;;;5074336;28;20136;-82
2023/04/27 07:26:14;;;;;;;6.90;3.30;;;8.50;99.90;;;;;;5074289;28;20059;-82
2023/04/27 07:28:40;;;;;;;6.13;3.38;;;8.50;99.90;;;;;;5074465;28;20032;-82
2023/04/27 07:31:06;;;;;;;8.20;3.38;;;8.60;99.90;;;;;;5074397;28;20044;-88
2023/04/27 07:33:32;;;;;;;8.18;3.50;;;8.80;99.90;;;;;;5074277;28;20111;-82
2023/04/27 07:36:02;;;;;;;6.93;3.15;;;9.00;99.90;;;;;;5074367;28;20072;-81
2023/04/27 07:38:28;;;;;;;7.32;3.50;;;9.30;99.90;;;;;;5074216;28;20075;-83
2023/04/27 07:40:57;;;;;;;8.70;3.50;;;9.60;99.90;;;;;;5074136;28;20105;-79
2023/04/27 07:43:24;;;;;;;7.32;3.75;;;9.70;99.90;;;;;;5074306;28;20075;-83
2023/04/27 07:45:50;;;;;;;9.38;3.85;;;9.80;99.90;;;;;;5074013;28;20040;-83
2023/04/27 07:48:16;;;;;;;6.15;3.63;;;9.70;99.90;;;;;;5073972;28;20399;-83
2023/04/27 07:50:41;;;;;;;7.63;3.75;;;9.80;99.90;;;;;;5072587;28;20044;-82
2023/04/27 07:53:07;;;;;;;8.05;3.58;;;10.10;99.90;;;;;;5074103;28;20048;-82
2023/04/27 07:55:33;;;;;;;7.03;3.10;;;10.20;99.90;;;;;;5073773;28;20090;-81
2023/04/27 07:57:58;;;;;;;8.13;3.55;;;10.40;99.90;;;;;;5073461;28;20052;-81
2023/04/27 08:00:25;;;;;;;5.03;3.42;;;10.40;99.90;;;;;;5073960;28;20044;-81
2023/04/27 08:02:52;;;;;;;7.57;3.22;;;10.70;99.90;;;;;;5073948;28;20110;-81
2023/04/27 08:05:18;;;;;;;6.97;2.95;;;10.80;99.90;;;;;;5073732;28;20110;-81
2023/04/27 08:07:44;;;;;;;5.80;2.80;;;10.90;99.90;;;;;;5073584;28;20082;-82
2023/04/27 08:10:10;;;;;;;6.85;3.53;;;10.90;99.90;;;;;;5073376;28;20102;-83
2023/04/27 08:12:35;;;;;;;8.88;2.88;;;10.70;99.90;;;;;;5073656;28;20048;-83
2023/04/27 08:15:01;;;;;;;7.20;3.22;;;10.50;99.90;;;;;;5073780;28;20484;-83
2023/04/27 08:17:27;;;;;;;5.05;2.88;;;10.20;99.90;;;;;;5073743;28;20541;-83
2023/04/27 08:19:52;;;;;;;4.43;2.90;;;10.20;99.90;;;;;;5073211;28;20058;-83
2023/04/27 08:22:18;;;;;;;5.97;2.65;;;10.00;99.90;;;;;;5071505;28;20056;-83
2023/04/27 08:24:44;;;;;;;4.10;2.75;;;10.00;99.90;;;;;;5072943;28;20040;-84
2023/04/27 08:27:10;;;;;;;4.80;2.70;;;10.10;99.90;;;;;;5073343;28;20365;-86
2023/04/27 08:29:35;;;;;;;4.57;2.78;;;10.10;99.90;;;;;;5073721;28;20456;-84
2023/04/27 08:32:02;;;;;;;4.05;2.90;;;10.10;99.90;;;;;;5073087;28;20059;-84
2023/04/27 08:34:28;;;;;;;4.47;2.88;;;10.10;99.90;;;;;;5073517;28;20041;-83
2023/04/27 08:36:55;;;;;;;8.23;2.97;;;10.30;99.90;;;;;;5073345;28;20032;-88
2023/04/27 08:39:20;;;;;;;4.93;2.58;;;10.30;99.90;;;;;;5071629;28;20040;-82
2023/04/27 08:41:46;;;;;;;4.35;2.80;;;10.50;99.90;;;;;;5073428;28;20047;-82
2023/04/27 08:44:11;;;;;;;5.80;2.67;;;10.60;99.90;;;;;;5073068;28;20036;-82
2023/04/27 08:46:38;;;;;;;4.18;2.47;;;10.70;99.90;;;;;;5071931;28;20052;-83
2023/04/27 08:49:03;;;;;;;4.80;2.67;;;10.70;99.90;;;;;;5071852;28;20033;-82
2023/04/27 08:51:31;;;;;;;6.93;3.53;;;10.90;99.90;;;;;;5073271;28;20041;-84
2023/04/27 08:53:57;;;;;;;5.10;3.15;;;11.00;99.90;;;;;;5073258;28;20147;-84
2023/04/27 08:56:25;;;;;;;6.78;3.05;;;11.00;99.90;;;;;;5071904;28;20075;-83
2023/04/27 08:58:51;;;;;;;5.43;3.22;;;10.90;99.90;;;;;;5073225;28;20039;-83
2023/04/27 09:01:17;;;;;;;5.78;2.80;;;10.80;99.90;;;;;;5073055;28;20487;-81
2023/04/27 09:03:45;;;;;;;6.38;2.88;;;10.80;99.90;;;;;;5071851;28;20048;-85
2023/04/27 09:06:12;;;;;;;6.30;3.13;;;10.90;99.90;;;;;;5072997;28;20510;-84
2023/04/27 09:08:45;;;;;;;5.45;3.05;;;10.90;99.90;;;;;;5072581;28;20490;-85
2023/04/27 09:11:11;;;;;;;;;;;10.90;99.90;;;;;;5073855;28;20080;-90
2023/04/27 09:13:38;;;;;;;6.03;3.53;;;10.90;99.90;;;;;;5071402;28;20379;-85
2023/04/27 09:16:04;;;;;;;4.90;2.88;;;10.80;99.90;;;;;;5073145;28;20090;-85
2023/04/27 09:18:34;;;;;;;5.28;2.75;;;10.80;99.90;;;;;;5071419;28;20048;-83
2023/04/27 09:21:00;;;;;;;8.05;4.03;;;10.80;99.90;;;;;;5072811;28;20127;-84
2023/04/27 09:23:26;;;;;;;6.32;3.10;;;10.80;99.90;;;;;;5071394;28;20132;-83
2023/04/27 09:25:55;;;;;;;6.60;3.33;;;10.80;99.90;;;;;;5071538;28;20057;-84
2023/04/27 09:28:21;;;;;;;6.00;3.05;;;10.90;99.90;;;;;;5071492;28;20049;-86
2023/04/27 09:30:54;;;;;;;6.93;3.78;;;10.90;99.90;;;;;;5072369;28;20521;-86
2023/04/27 09:33:23;;;;;;;;;;;11.00;99.90;;;;;;5074677;28;20052;-85
2023/04/27 09:35:49;;;;;;;7.28;3.83;;;11.10;99.90;;;;;;5075432;28;19920;-86
2023/04/27 09:38:20;;;;;;;6.28;3.47;;;11.10;99.90;;;;;;5075497;28;20055;-84
2023/04/27 09:40:46;;;;;;;7.35;3.90;;;11.30;99.90;;;;;;5074936;28;20084;-83
2023/04/27 09:43:13;;;;;;;7.70;4.15;;;11.20;99.90;;;;;;5076594;28;20044;-84
2023/04/27 09:45:38;;;;;;;6.00;3.83;;;11.30;99.90;;;;;;5075176;28;20063;-83
2023/04/27 09:48:05;;;;;;;7.97;3.67;;;11.30;99.90;;;;;;5076198;28;20033;-83
2023/04/27 09:50:35;;;;;;;6.75;4.18;;;11.30;99.90;;;;;;5076330;28;20045;-84
2023/04/27 09:53:04;;;;;;;9.20;4.07;;;11.40;99.90;;;;;;5076504;28;20089;-84
2023/04/27 09:55:36;;;;;;;9.60;4.55;;;11.40;99.90;;;;;;5076324;28;20047;-85
2023/04/27 09:58:38;;;;;;;10.80;4.32;;;11.30;99.90;;;;;;5076025;28;20079;-85
2023/04/27 10:01:20;;;;;;;5.88;4.00;;;11.20;99.90;;;;;;5075965;28;20487;-84
2023/04/27 10:03:48;;;;;;;8.02;4.07;;;11.10;99.90;;;;;;5074767;28;20049;-84
2023/04/27 10:06:13;;;;;;;12.20;4.10;;;11.00;99.90;;;;;;5074875;28;20373;-84
2023/04/27 10:08:40;;;;;;;6.85;4.25;;;10.90;99.90;;;;;;5074843;28;20051;-85
2023/04/27 10:11:14;;;;;;;6.75;4.13;;;10.90;99.90;;;;;;5075522;28;20044;-85
2023/04/27 10:13:51;;;;;;;7.65;4.25;;;10.90;99.90;;;;;;5075727;28;20554;-85
2023/04/27 10:16:18;;;;;;;5.55;3.30;;;11.00;99.90;;;;;;5075793;28;20093;-84
2023/04/27 10:18:54;;;;;;;8.88;4.25;;;11.00;99.90;;;;;;5075708;28;20055;-84
2023/04/27 10:21:20;;;;;;;9.68;3.97;;;11.00;99.90;;;;;;5085401;28;20062;-87
2023/04/27 10:23:50;;;;;;;8.98;4.07;;;11.00;99.90;;;;;;5094277;28;20072;-84
2023/04/27 10:26:27;;;;;;;7.28;4.00;;;11.00;99.90;;;;;;5096113;28;20076;-84
2023/04/27 10:29:03;;;;;;;7.78;4.10;;;11.00;99.90;;;;;;5095809;28;20085;-84
2023/04/27 10:31:28;;;;;;;8.40;4.75;;;10.90;99.90;;;;;;5095728;28;20039;-84
2023/04/27 10:34:15;;;;;;;9.07;4.05;;;10.80;99.90;;;;;;5128691;27;20055;-84
2023/04/27 10:36:41;;;;;;;5.95;3.53;;;10.80;99.90;;;;;;5128647;27;20039;-85
2023/04/27 10:39:35;;;;;;;7.68;3.83;;;10.80;99.90;;;;;;5095901;28;20040;-84
2023/04/27 10:42:01;;;;;;;7.72;3.05;;;10.80;99.90;;;;;;5093874;28;20048;-85
2023/04/27 10:44:28;;;;;;;6.05;3.35;;;10.40;99.90;;;;;;5093249;28;20506;-84
2023/04/27 10:46:56;;;;;;;6.25;3.17;;;10.20;99.90;;;;;;5095621;28;20050;-85
2023/04/27 10:49:22;;;;;;;6.95;4.00;;;10.10;99.90;;;;;;5093898;28;20052;-83
2023/04/27 10:51:50;;;;;;;6.43;3.58;;;10.00;99.90;;;;;;5128167;27;20054;-84
2023/04/27 10:54:16;;;;;;;5.93;3.30;;;9.90;99.90;;;;;;5095597;28;20041;-84
2023/04/27 10:56:42;;;;;;;6.85;3.50;;;9.70;99.90;;;;;;5095473;28;20044;-84
2023/04/27 10:59:08;;;;;;;7.13;3.78;;;9.60;99.90;;;;;;5093802;28;20080;-84
2023/04/27 11:01:34;;;;;;;6.53;3.20;;;9.60;99.90;;;;;;5093878;28;20056;-86
2023/04/27 11:04:00;;;;;;;6.55;2.72;;;9.50;99.90;;;;;;5095188;28;20039;-86
2023/04/27 11:06:32;;;;;;;4.93;2.30;;;9.40;99.90;;;;;;5095342;28;20055;-84
2023/04/27 11:08:58;;;;;;;7.68;3.08;;;9.40;99.90;;;;;;5093730;28;20048;-83
2023/04/27 11:11:24;;;;;;;9.70;2.45;;;9.30;99.90;;;;;;5094867;28;20047;-83
2023/04/27 11:13:54;;;;;;;6.10;2.10;;;9.20;99.90;;;;;;5094821;28;20046;-84
2023/04/27 11:16:20;;;;;;;7.40;2.25;;;9.10;99.90;;;;;;5094812;28;20487;-84
2023/04/27 11:18:45;;;;;;;4.60;2.30;;;9.10;99.90;;;;;;5093580;28;20126;-83
2023/04/27 11:21:16;;;;;;;3.95;2.25;;;9.10;99.90;;;;;;5094979;28;20123;-84
2023/04/27 11:23:42;;;;;;;5.47;2.70;;;9.00;99.90;;;;;;5093226;28;20445;-83
2023/04/27 11:26:13;;;;;;;3.67;2.13;;;9.00;99.90;;;;;;5094466;28;20392;-83
2023/04/27 11:28:44;;;;;;;5.78;2.65;;;9.00;99.90;;;;;;5093067;28;20052;-82
2023/04/27 11:31:10;;;;;;;5.03;2.80;;;9.00;99.90;;;;;;5094826;28;20048;-83
2023/04/27 11:33:38;;;;;;;4.97;2.50;;;9.00;99.90;;;;;;5093204;28;20072;-84
2023/04/27 11:36:15;;;;;;;5.88;2.72;;;9.00;99.90;;;;;;5094366;28;20407;-83
2023/04/27 11:38:41;;;;;;;4.50;2.53;;;9.00;99.90;;;;;;5094317;28;20044;-84
2023/04/27 11:41:07;;;;;;;11.38;3.35;;;9.10;99.90;;;;;;5094548;28;20047;-84
2023/04/27 11:43:33;;;;;;;9.50;3.47;;;9.10;99.90;;;;;;5094256;28;20052;-84
2023/04/27 11:46:04;;;;;;;10.38;3.28;;;9.10;99.90;;;;;;5094623;28;20123;-84
2023/04/27 11:48:30;;;;;;;8.98;3.15;;;9.10;99.90;;;;;;5093233;28;20071;-84
2023/04/27 11:50:58;;;;;;;6.07;3.20;;;9.20;99.90;;;;;;5094062;28;20072;-83
2023/04/27 11:53:37;;;;;;;9.35;2.83;;;9.20;99.90;;;;;;5094021;28;20395;-84
2023/04/27 11:56:06;;;;;;;5.38;3.13;;;9.30;99.90;;;;;;5093962;28;20055;-81
2023/04/27 11:58:33;;;;;;;7.50;2.80;;;9.30;99.90;;;;;;5092784;28;20059;-83
2023/04/27 12:01:00;;;;;;;7.00;3.40;;;9.40;99.90;;;;;;5092973;28;20051;-82
2023/04/27 12:03:27;;;;;;;8.52;3.47;;;9.50;99.90;;;;;;5094264;28;20036;-82
2023/04/27 12:05:53;;;;;;;7.93;3.20;;;9.70;99.90;;;;;;5092614;28;20051;-85
2023/04/27 12:08:19;;;;;;;6.68;2.92;;;9.80;99.90;;;;;;5094207;28;20040;-84
2023/04/27 12:10:45;;;;;;;6.55;3.20;;;10.00;99.90;;;;;;5092316;28;20048;-84
2023/04/27 12:13:11;;;;;;;8.57;3.33;;;10.10;99.90;;;;;;5092777;28;20089;-86
2023/04/27 12:15:37;;;;;;;6.35;3.10;;;10.10;99.90;;;;;;5094000;28;20089;-85
2023/04/27 12:18:03;;;;;;;6.57;3.25;;;10.30;99.90;;;;;;5092454;28;20048;-85
2023/04/27 12:20:29;;;;;;;8.95;3.40;;;10.60;99.90;;;;;;5093889;28;20043;-85
2023/04/27 12:22:56;;;;;;;8.38;3.17;;;10.90;99.90;;;;;;5093756;28;20064;-84
2023/04/27 12:25:25;;;;;;;6.50;3.10;;;11.10;99.90;;;;;;5093631;28;20052;-85
2023/04/27 12:27:52;;;;;;;6.25;3.00;;;11.30;99.90;;;;;;5093477;28;20510;-84
2023/04/27 12:30:18;;;;;;;7.07;3.25;;;11.40;99.90;;;;;;5092398;28;20070;-82
2023/04/27 12:32:43;;;;;;;6.82;3.40;;;11.60;99.90;;;;;;5092131;28;20048;-83
2023/04/27 12:35:09;;;;;;;7.38;3.08;;;11.70;99.90;;;;;;5092210;28;20381;-83
2023/04/27 12:37:35;;;;;;;6.60;3.38;;;11.80;99.90;;;;;;5091992;28;20075;-83
2023/04/27 12:40:05;;;;;;;5.72;2.85;;;11.80;99.90;;;;;;5093782;28;20048;-83
2023/04/27 12:42:31;;;;;;;5.07;3.20;;;11.70;99.90;;;;;;5092492;28;20048;-83
2023/04/27 12:44:56;;;;;;;8.45;3.10;;;11.60;99.90;;;;;;5093481;28;20044;-83
2023/04/27 12:47:22;;;;;;;7.65;2.97;;;11.70;99.90;;;;;;5093499;28;20073;-83
2023/04/27 12:49:48;;;;;;;6.13;3.00;;;11.70;99.90;;;;;;5093359;28;20050;-85